ミールヌイ の空港の天気 - METARとTAF

Mirny ( UERR / MJZ ) - ロシア ミールヌイ
飛行場実況気象(Metar)
観測時間11/27 18:00 YAKT (11/27 09:00 UTC)
風向・風速不定 1m/s
視程10km以上
天気現象
なし
気温-33℃
湿度74%
気圧1026hPa
METARUERR 270900Z VRB01MPS CAVOK M33/M36 Q1026 R25/490137 NOSIG RMK QFE738/0985
過去の天気等 Google飛行場航空写真 Wunderground天気予報

過去48時間のMETAR

飛行場予報(TAF)
発表時間: 11/27 17:00 YAKT (11/27 08:00 UTC)
予報対象時間: 27日18時 YAKT ~ 28日18時 YAKT
風向・風速不定 1m/s
視程10km以上
全天の4割程度の雲 雲底高度 700m
27日18時 YAKT ~ 27日21時 YAKT に一時的に
視程4000m
天気現象弱い雪 もや
全天の4割程度の雲 雲底高度 210m
全天の8割程度の雲 雲底高度 700m
TAF UERR 270800Z 2709/2809 VRB01MPS 9999 SCT023
TEMPO 2709/2712 4000 -SN BR SCT007 BKN023